Time,TemperatureF,DewpointF,PressureIn,WindDirection,WindDirectionDegrees,WindSpeedMPH,WindSpeedGustMPH,Humidity,HourlyPrecipIn,Conditions,Clouds,dailyrainin,SolarRadiationWatts/m^2,SoftwareType,DateUTC
2013-03-11 00:00:00,32.3,19.2,30.08,SW,214,0.8,3.4,58,0.00,CLR,CLR,0.19,0.0,WeatherDisplay:10.37,2013-03-11 06:00:00,
2013-03-11 00:07:00,32.4,19.3,30.06,SW,214,0.0,0.0,58,0.00,CLR,CLR,0.19,0.0,WeatherDisplay:10.37,2013-03-11 06:07:00,
2013-03-11 00:14:00,32.4,19.7,30.05,SW,214,0.0,1.1,59,0.00,FEW,FEW,0.19,0.0,WeatherDisplay:10.37,2013-03-11 06:14:00,
2013-03-11 00:21:00,32.4,19.7,30.05,SW,214,0.0,0.0,59,0.00,FEW,FEW,0.19,0.0,WeatherDisplay:10.37,2013-03-11 06:21:00,
2013-03-11 00:28:00,32.3,19.6,30.04,SW,214,0.0,1.1,59,0.00,FEW,FEW,0.19,0.0,WeatherDisplay:10.37,2013-03-11 06:28:00,
2013-03-11 00:35:00,32.1,19.4,30.04,SW,214,0.0,0.0,59,0.00,FEW,FEW,0.19,0.0,WeatherDisplay:10.37,2013-03-11 06:35:00,
2013-03-11 00:42:00,32.0,19.3,30.03,SW,214,1.1,2.3,59,0.00,FEW,FEW,0.19,0.0,WeatherDisplay:10.37,2013-03-11 06:42:00,
2013-03-11 00:49:00,31.7,19.0,30.03,SW,214,0.7,1.0,59,0.00,FEW,FEW,0.19,0.0,WeatherDisplay:10.37,2013-03-11 06:49:00,
2013-03-11 00:56:00,31.5,19.2,30.03,SW,214,0.7,2.0,60,0.00,FEW,FEW,0.19,0.0,WeatherDisplay:10.37,2013-03-11 06:56:00,
2013-03-11 01:03:00,31.2,19.3,30.03,SSW,213,0.0,2.3,61,0.00,SCT,SCT,0.00,0.0,WeatherDisplay:10.37,2013-03-11 07:03:00,
2013-03-11 01:10:00,30.9,19.4,30.04,SSW,213,0.1,2.3,62,0.00,SCT,SCT,0.00,0.0,WeatherDisplay:10.37,2013-03-11 07:10:00,
2013-03-11 01:17:00,30.6,19.1,30.03,SSW,213,0.3,3.4,62,0.00,SCT,SCT,0.00,0.0,WeatherDisplay:10.37,2013-03-11 07:17:00,
2013-03-11 01:24:00,30.4,19.3,30.03,SSW,213,0.0,2.3,63,0.00,SCT,SCT,0.00,0.0,WeatherDisplay:10.37,2013-03-11 07:24:00,
2013-03-11 01:31:00,30.3,18.8,30.03,SSW,213,1.1,3.4,62,0.00,SCT,SCT,0.00,0.0,WeatherDisplay:10.37,2013-03-11 07:31:00,
2013-03-11 01:38:00,30.2,18.7,30.03,SSW,213,0.2,0.0,62,0.00,SCT,SCT,0.00,0.0,WeatherDisplay:10.37,2013-03-11 07:38:00,
2013-03-11 01:45:00,30.2,18.7,30.03,SSW,213,0.3,2.3,62,0.00,SCT,SCT,0.00,0.0,WeatherDisplay:10.37,2013-03-11 07:45:00,
2013-03-11 01:52:00,30.2,18.7,30.03,SSW,213,0.0,0.0,62,0.00,SCT,SCT,0.00,0.0,WeatherDisplay:10.37,2013-03-11 07:52:00,
2013-03-11 01:59:00,30.2,18.7,30.03,SSW,198,3.6,4.6,62,0.00,SCT,SCT,0.00,0.0,WeatherDisplay:10.37,2013-03-11 07:59:00,
2013-03-11 02:06:00,30.3,18.8,30.04,SSW,198,3.0,4.0,62,0.00,SCT,SCT,0.00,0.0,WeatherDisplay:10.37,2013-03-11 08:06:00,
2013-03-11 02:13:00,30.6,18.7,30.02,SE,135,0.8,2.3,61,0.00,SCT,SCT,0.00,0.0,WeatherDisplay:10.37,2013-03-11 08:13:00,
2013-03-11 02:20:00,30.7,18.4,30.02,SE,134,2.4,3.4,60,0.00,SCT,SCT,0.00,0.0,WeatherDisplay:10.37,2013-03-11 08:20:00,
2013-03-11 02:27:00,30.9,18.6,30.01,SE,134,0.9,3.4,60,0.00,SCT,SCT,0.00,0.0,WeatherDisplay:10.37,2013-03-11 08:27:00,
2013-03-11 02:34:00,30.9,18.6,30.01,SE,135,1.8,3.4,60,0.00,SCT,SCT,0.00,0.0,WeatherDisplay:10.37,2013-03-11 08:34:00,
2013-03-11 02:41:00,30.8,18.9,30.01,SE,135,1.0,3.4,61,0.00,SCT,SCT,0.00,0.0,WeatherDisplay:10.37,2013-03-11 08:41:00,
2013-03-11 02:48:00,30.6,19.1,30.00,SE,136,0.4,2.0,62,0.00,SCT,SCT,0.00,0.0,WeatherDisplay:10.37,2013-03-11 08:48:00,
2013-03-11 02:55:00,30.2,18.7,30.01,SE,139,1.1,2.3,62,0.00,SCT,SCT,0.00,0.0,WeatherDisplay:10.37,2013-03-11 08:55:00,
2013-03-11 03:02:00,30.0,18.9,30.00,SE,138,0.3,2.0,63,0.00,SCT,SCT,0.00,0.0,WeatherDisplay:10.37,2013-03-11 09:02:00,
2013-03-11 03:09:00,29.7,18.6,30.00,SE,139,0.0,0.0,63,0.00,SCT,SCT,0.00,0.0,WeatherDisplay:10.37,2013-03-11 09:09:00,
2013-03-11 03:16:00,29.5,18.8,30.00,SE,139,0.0,0.0,64,0.00,SCT,SCT,0.00,0.0,WeatherDisplay:10.37,2013-03-11 09:16:00,
2013-03-11 03:23:00,29.3,18.6,30.00,SE,139,0.0,0.0,64,0.00,SCT,SCT,0.00,0.0,WeatherDisplay:10.37,2013-03-11 09:23:00,
2013-03-11 03:30:00,29.2,18.5,30.00,SE,139,0.5,2.3,64,0.00,SCT,SCT,0.00,0.0,WeatherDisplay:10.37,2013-03-11 09:30:00,
2013-03-11 03:37:00,29.2,18.5,30.00,SE,139,0.0,0.0,64,0.00,SCT,SCT,0.00,0.0,WeatherDisplay:10.37,2013-03-11 09:37:00,
2013-03-11 03:44:00,29.4,18.7,30.00,SE,139,0.1,1.1,64,0.00,SCT,SCT,0.00,0.0,WeatherDisplay:10.37,2013-03-11 09:44:00,
2013-03-11 03:51:00,29.4,19.1,30.00,SE,139,2.6,3.4,65,0.00,SCT,SCT,0.00,0.0,WeatherDisplay:10.37,2013-03-11 09:51:00,
2013-03-11 03:58:00,29.4,19.1,29.99,SSE,150,2.9,4.6,65,0.00,SCT,SCT,0.00,0.0,WeatherDisplay:10.37,2013-03-11 09:58:00,
2013-03-11 04:05:00,29.4,19.1,29.99,SE,144,3.2,3.4,65,0.00,SCT,SCT,0.00,0.0,WeatherDisplay:10.37,2013-03-11 10:05:00,
2013-03-11 04:12:00,29.3,19.3,29.99,SE,144,3.2,4.6,66,0.00,SCT,SCT,0.00,0.0,WeatherDisplay:10.37,2013-03-11 10:12:00,
2013-03-11 04:19:00,29.3,19.3,29.98,SE,146,2.1,3.4,66,0.00,SCT,SCT,0.00,0.0,WeatherDisplay:10.37,2013-03-11 10:19:00,
2013-03-11 04:26:00,29.3,19.3,29.97,SE,146,1.5,3.4,66,0.00,BKN,BKN,0.00,0.0,WeatherDisplay:10.37,2013-03-11 10:26:00,
2013-03-11 04:33:00,29.4,19.4,29.98,SE,146,0.0,1.1,66,0.00,BKN,BKN,0.00,0.0,WeatherDisplay:10.37,2013-03-11 10:33:00,
2013-03-11 04:40:00,29.6,19.6,29.97,SE,146,1.4,2.3,66,0.00,BKN,BKN,0.00,0.0,WeatherDisplay:10.37,2013-03-11 10:40:00,
2013-03-11 04:47:00,29.9,19.9,29.97,SE,146,0.3,2.0,66,0.00,BKN,BKN,0.00,0.0,WeatherDisplay:10.37,2013-03-11 10:47:00,
2013-03-11 04:54:00,30.2,19.8,29.97,SE,146,0.8,2.3,65,0.00,BKN,BKN,0.00,0.0,WeatherDisplay:10.37,2013-03-11 10:54:00,
2013-03-11 05:01:00,30.4,20.0,29.97,SSE,148,0.1,1.1,65,0.00,BKN,BKN,0.00,0.0,WeatherDisplay:10.37,2013-03-11 11:01:00,
2013-03-11 05:08:00,30.6,20.2,29.96,SSE,148,0.0,0.0,65,0.00,BKN,BKN,0.00,0.0,WeatherDisplay:10.37,2013-03-11 11:08:00,
2013-03-11 05:15:00,30.6,19.9,29.96,SSE,148,0.8,2.3,64,0.00,BKN,BKN,0.00,0.0,WeatherDisplay:10.37,2013-03-11 11:15:00,
2013-03-11 05:22:00,30.7,20.3,29.96,SSE,148,0.0,1.1,65,0.00,BKN,BKN,0.00,0.0,WeatherDisplay:10.37,2013-03-11 11:22:00,
2013-03-11 05:29:00,30.6,20.2,29.97,SSE,148,1.5,2.3,65,0.00,BKN,BKN,0.00,0.0,WeatherDisplay:10.37,2013-03-11 11:29:00,
2013-03-11 05:36:00,30.6,20.2,29.97,SE,146,1.7,3.4,65,0.00,BKN,BKN,0.00,0.0,WeatherDisplay:10.37,2013-03-11 11:36:00,
2013-03-11 05:41:00,30.6,20.2,29.97,SSE,147,2.1,4.6,65,0.00,BKN,BKN,0.00,0.0,WeatherDisplay:10.37,2013-03-11 11:41:00,
2013-03-11 05:46:00,30.6,20.2,29.98,SE,146,1.7,3.4,65,0.00,BKN,BKN,0.00,0.0,WeatherDisplay:10.37,2013-03-11 11:46:00,
2013-03-11 05:51:00,30.6,20.2,29.97,SSE,147,3.2,4.0,65,0.00,BKN,BKN,0.00,0.0,WeatherDisplay:10.37,2013-03-11 11:51:00,
2013-03-11 05:57:00,30.7,20.3,29.97,SSE,147,0.4,2.3,65,0.00,BKN,BKN,0.00,0.0,WeatherDisplay:10.37,2013-03-11 11:57:00,
2013-03-11 06:04:00,30.9,20.5,29.98,SSE,147,0.5,1.1,65,0.00,BKN,BKN,0.00,0.0,WeatherDisplay:10.37,2013-03-11 12:04:00,
2013-03-11 06:11:00,31.1,20.3,29.98,SSE,147,1.2,3.4,64,0.00,BKN,BKN,0.00,0.0,WeatherDisplay:10.37,2013-03-11 12:11:00,
2013-03-11 06:18:00,31.3,20.5,29.99,SSE,147,1.8,3.4,64,0.00,BKN,BKN,0.00,0.0,WeatherDisplay:10.37,2013-03-11 12:18:00,
2013-03-11 06:25:00,31.4,20.6,29.99,SSE,147,0.0,0.0,64,0.00,BKN,BKN,0.00,0.0,WeatherDisplay:10.37,2013-03-11 12:25:00,
2013-03-11 06:32:00,31.7,20.5,29.97,SE,144,1.2,3.4,63,0.00,BKN,BKN,0.00,0.0,WeatherDisplay:10.37,2013-03-11 12:32:00,
2013-03-11 06:39:00,31.9,20.3,29.97,South,183,0.0,0.0,62,0.00,BKN,BKN,0.00,0.0,WeatherDisplay:10.37,2013-03-11 12:39:00,
2013-03-11 06:46:00,32.3,21.1,29.98,South,183,0.7,2.3,63,0.00,BKN,BKN,0.00,0.0,WeatherDisplay:10.37,2013-03-11 12:46:00,
2013-03-11 06:53:00,32.3,21.1,29.98,SSE,149,2.8,8.1,63,0.00,BKN,BKN,0.00,0.0,WeatherDisplay:10.37,2013-03-11 12:53:00,
2013-03-11 07:00:00,32.2,21.0,29.97,ESE,117,0.2,0.0,63,0.00,BKN,BKN,0.00,0.0,WeatherDisplay:10.37,2013-03-11 13:00:00,
2013-03-11 07:07:00,32.1,20.9,29.99,ESE,117,0.0,0.0,63,0.00,BKN,BKN,0.00,0.0,WeatherDisplay:10.37,2013-03-11 13:07:00,
2013-03-11 07:14:00,32.0,20.8,29.98,ESE,117,1.1,2.3,63,0.00,BKN,BKN,0.00,0.0,WeatherDisplay:10.37,2013-03-11 13:14:00,
2013-03-11 07:21:00,32.1,20.9,29.98,ESE,117,0.0,1.1,63,0.00,BKN,BKN,0.00,5.0,WeatherDisplay:10.37,2013-03-11 13:21:00,
2013-03-11 07:28:00,32.2,21.0,29.99,ESE,117,0.0,0.0,63,0.00,BKN,BKN,0.00,0.0,WeatherDisplay:10.37,2013-03-11 13:28:00,
2013-03-11 07:35:00,32.3,20.3,29.99,ESE,117,0.0,0.0,61,0.00,BKN,BKN,0.00,18.0,WeatherDisplay:10.37,2013-03-11 13:35:00,
2013-03-11 07:42:00,32.5,20.1,30.00,ESE,117,0.0,0.0,60,0.00,BKN,BKN,0.00,26.0,WeatherDisplay:10.37,2013-03-11 13:42:00,
2013-03-11 07:49:00,33.2,19.2,30.00,West,278,3.3,4.6,56,0.00,BKN,BKN,0.00,37.0,WeatherDisplay:10.37,2013-03-11 13:49:00,
2013-03-11 07:56:00,34.7,19.3,29.99,NW,322,4.4,11.5,53,0.00,BKN,BKN,0.00,42.0,WeatherDisplay:10.37,2013-03-11 13:56:00,
2013-03-11 08:03:00,36.9,18.0,30.00,WNW,298,5.7,9.2,46,0.00,BKN,BKN,0.00,49.0,WeatherDisplay:10.37,2013-03-11 14:03:00,
2013-03-11 08:10:00,39.0,17.8,29.98,WSW,257,2.3,5.8,42,0.00,BKN,BKN,0.00,51.0,WeatherDisplay:10.37,2013-03-11 14:10:00,
2013-03-11 08:17:00,40.1,17.7,29.97,West,281,4.7,6.9,40,0.00,BKN,BKN,0.00,60.0,WeatherDisplay:10.37,2013-03-11 14:17:00,
2013-03-11 08:24:00,40.6,18.1,29.97,WSW,242,1.7,3.4,40,0.00,BKN,BKN,0.00,76.0,WeatherDisplay:10.37,2013-03-11 14:24:00,
2013-03-11 08:31:00,41.1,18.0,29.97,NW,305,3.7,10.3,39,0.00,BKN,BKN,0.00,181.0,WeatherDisplay:10.37,2013-03-11 14:31:00,
2013-03-11 08:38:00,41.9,18.1,29.97,NNW,340,8.5,12.6,38,0.00,BKN,BKN,0.00,243.0,WeatherDisplay:10.37,2013-03-11 14:38:00,
2013-03-11 08:44:00,42.8,18.9,29.97,NNW,331,4.8,10.3,38,0.00,BKN,BKN,0.00,218.0,WeatherDisplay:10.37,2013-03-11 14:44:00,
2013-03-11 08:52:00,43.3,18.7,29.97,WNW,294,6.2,12.6,37,0.00,BKN,BKN,0.00,290.0,WeatherDisplay:10.37,2013-03-11 14:52:00,
2013-03-11 08:58:00,43.8,18.5,29.97,NW,321,4.1,6.9,36,0.00,BKN,BKN,0.00,327.0,WeatherDisplay:10.37,2013-03-11 14:58:00,
2013-03-11 09:05:00,44.3,19.0,29.98,WNW,300,7.5,16.0,36,0.00,BKN,BKN,0.00,345.0,WeatherDisplay:10.37,2013-03-11 15:05:00,
2013-03-11 09:12:00,44.8,18.8,29.99,NNW,332,5.0,9.2,35,0.00,BKN,BKN,0.00,383.0,WeatherDisplay:10.37,2013-03-11 15:12:00,
2013-03-11 09:19:00,45.1,19.0,29.99,NW,318,6.1,14.0,35,0.00,BKN,BKN,0.00,446.0,WeatherDisplay:10.37,2013-03-11 15:19:00,
2013-03-11 09:26:00,45.6,19.5,29.97,NW,317,3.7,6.0,35,0.00,BKN,BKN,0.00,461.0,WeatherDisplay:10.37,2013-03-11 15:26:00,
2013-03-11 09:33:00,46.2,19.3,29.96,WNW,296,5.6,11.5,34,0.00,BKN,BKN,0.00,483.0,WeatherDisplay:10.37,2013-03-11 15:33:00,
2013-03-11 09:40:00,46.7,19.8,29.95,NW,307,6.3,10.3,34,0.00,BKN,BKN,0.00,534.0,WeatherDisplay:10.37,2013-03-11 15:40:00,
2013-03-11 09:47:00,47.3,19.6,29.95,NW,309,4.9,6.9,33,0.00,BKN,BKN,0.00,589.0,WeatherDisplay:10.37,2013-03-11 15:47:00,
2013-03-11 09:54:00,47.8,20.1,29.94,NW,311,8.4,13.8,33,0.00,BKN,BKN,0.00,563.0,WeatherDisplay:10.37,2013-03-11 15:54:00,
2013-03-11 10:01:00,48.1,20.3,29.94,WNW,300,6.9,11.5,33,0.00,BKN,BKN,0.00,626.0,WeatherDisplay:10.37,2013-03-11 16:01:00,
2013-03-11 10:08:00,48.3,19.8,29.95,NW,313,6.4,8.1,32,0.00,BKN,BKN,0.00,584.0,WeatherDisplay:10.37,2013-03-11 16:08:00,
2013-03-11 10:15:00,48.6,19.3,29.94,WNW,293,10.9,13.8,31,0.00,BKN,BKN,0.00,605.0,WeatherDisplay:10.37,2013-03-11 16:15:00,
2013-03-11 10:22:00,48.8,20.2,29.95,WNW,290,4.2,13.0,32,0.00,BKN,BKN,0.00,601.0,WeatherDisplay:10.37,2013-03-11 16:22:00,
2013-03-11 10:29:00,49.2,20.6,29.95,NW,318,8.6,12.6,32,0.00,BKN,BKN,0.00,668.0,WeatherDisplay:10.37,2013-03-11 16:29:00,
2013-03-11 10:36:00,49.2,19.8,29.95,NW,311,3.3,14.9,31,0.00,BKN,BKN,0.00,686.0,WeatherDisplay:10.37,2013-03-11 16:36:00,
2013-03-11 10:43:00,49.6,20.2,29.95,NNW,340,5.8,12.6,31,0.00,BKN,BKN,0.00,664.0,WeatherDisplay:10.37,2013-03-11 16:43:00,
2013-03-11 10:50:00,49.3,19.9,29.95,NW,304,7.3,11.5,31,0.00,BKN,BKN,0.00,308.0,WeatherDisplay:10.37,2013-03-11 16:50:00,
2013-03-11 10:57:00,48.8,19.5,29.94,NW,311,9.5,12.6,31,0.00,BKN,BKN,0.00,780.0,WeatherDisplay:10.37,2013-03-11 16:57:00,
2013-03-11 11:04:00,48.9,19.5,29.96,WNW,300,10.6,16.1,31,0.00,BKN,BKN,0.00,642.0,WeatherDisplay:10.37,2013-03-11 17:04:00,
2013-03-11 11:11:00,49.1,20.5,29.96,NW,315,9.2,11.5,32,0.00,BKN,BKN,0.00,682.0,WeatherDisplay:10.37,2013-03-11 17:11:00,
2013-03-11 11:18:00,49.4,20.7,29.96,NNW,337,8.4,12.6,32,0.00,BKN,BKN,0.00,545.0,WeatherDisplay:10.37,2013-03-11 17:18:00,
2013-03-11 11:25:00,49.3,20.6,29.95,NW,325,8.4,14.0,32,0.00,BKN,BKN,0.00,691.0,WeatherDisplay:10.37,2013-03-11 17:25:00,
2013-03-11 11:32:00,49.6,21.6,29.94,North,351,8.8,14.9,33,0.00,BKN,BKN,0.00,803.0,WeatherDisplay:10.37,2013-03-11 17:32:00,
2013-03-11 11:39:00,49.6,21.6,29.94,NNW,336,9.2,11.5,33,0.00,BKN,BKN,0.00,791.0,WeatherDisplay:10.37,2013-03-11 17:39:00,
2013-03-11 11:46:00,49.7,21.7,29.93,NE,44,7.2,11.5,33,0.00,BKN,BKN,0.00,800.0,WeatherDisplay:10.37,2013-03-11 17:46:00,
2013-03-11 11:53:00,50.3,23.0,29.93,NW,322,4.0,6.9,34,0.00,BKN,BKN,0.00,809.0,WeatherDisplay:10.37,2013-03-11 17:53:00,
2013-03-11 12:00:00,51.1,23.0,29.93,North,355,8.5,11.5,33,0.00,BKN,BKN,0.00,833.0,WeatherDisplay:10.37,2013-03-11 18:00:00,
2013-03-11 12:07:00,51.0,22.1,29.92,NNW,340,7.2,12.6,32,0.00,BKN,BKN,0.00,770.0,WeatherDisplay:10.37,2013-03-11 18:07:00,
2013-03-11 12:14:00,50.8,22.0,29.91,North,351,8.6,11.5,32,0.00,BKN,BKN,0.00,744.0,WeatherDisplay:10.37,2013-03-11 18:14:00,
2013-03-11 12:21:00,51.0,22.1,29.91,NW,310,5.8,11.5,32,0.00,BKN,BKN,0.00,626.0,WeatherDisplay:10.37,2013-03-11 18:21:00,
2013-03-11 12:28:00,50.8,22.7,29.91,NW,321,5.2,10.3,33,0.00,BKN,BKN,0.00,700.0,WeatherDisplay:10.37,2013-03-11 18:28:00,
2013-03-11 12:35:00,50.7,22.6,29.90,NNW,345,7.9,14.9,33,0.00,BKN,BKN,0.00,404.0,WeatherDisplay:10.37,2013-03-11 18:35:00,
2013-03-11 12:42:00,50.4,22.3,29.91,NNW,336,7.6,13.8,33,0.00,BKN,BKN,0.00,413.0,WeatherDisplay:10.37,2013-03-11 18:42:00,
2013-03-11 12:49:00,50.1,22.1,29.92,NW,313,6.9,11.5,33,0.00,BKN,BKN,0.00,429.0,WeatherDisplay:10.37,2013-03-11 18:49:00,
2013-03-11 12:56:00,50.1,22.1,29.90,NW,321,10.2,14.0,33,0.00,BKN,BKN,0.00,438.0,WeatherDisplay:10.37,2013-03-11 18:56:00,
2013-03-11 13:03:00,49.8,22.5,29.90,NNW,342,4.6,6.9,34,0.00,BKN,BKN,0.00,417.0,WeatherDisplay:10.37,2013-03-11 19:03:00,
2013-03-11 13:10:00,49.9,22.6,29.90,North,10,5.4,9.2,34,0.00,BKN,BKN,0.00,392.0,WeatherDisplay:10.37,2013-03-11 19:10:00,
2013-03-11 13:17:00,49.9,22.6,29.89,NW,325,6.4,12.6,34,0.00,BKN,BKN,0.00,350.0,WeatherDisplay:10.37,2013-03-11 19:17:00,
2013-03-11 13:24:00,49.9,23.3,29.89,NNW,337,5.6,11.5,35,0.00,BKN,BKN,0.00,290.0,WeatherDisplay:10.37,2013-03-11 19:24:00,
2013-03-11 13:31:00,50.1,23.5,29.89,NNE,19,5.0,11.5,35,0.00,BKN,BKN,0.00,269.0,WeatherDisplay:10.37,2013-03-11 19:31:00,
2013-03-11 13:38:00,50.1,23.5,29.88,North,349,4.2,10.0,35,0.00,BKN,BKN,0.00,255.0,WeatherDisplay:10.37,2013-03-11 19:38:00,
2013-03-11 13:45:00,50.1,23.5,29.88,NNW,340,6.9,9.2,35,0.00,BKN,BKN,0.00,248.0,WeatherDisplay:10.37,2013-03-11 19:45:00,
2013-03-11 13:52:00,50.0,23.4,29.88,NNE,21,4.6,6.9,35,0.00,BKN,BKN,0.00,248.0,WeatherDisplay:10.37,2013-03-11 19:52:00,
2013-03-11 13:59:00,50.0,23.4,29.87,North,355,7.0,11.5,35,0.00,BKN,BKN,0.00,241.0,WeatherDisplay:10.37,2013-03-11 19:59:00,
2013-03-11 14:06:00,50.0,23.4,29.88,North,350,5.9,11.5,35,0.00,BKN,BKN,0.00,244.0,WeatherDisplay:10.37,2013-03-11 20:06:00,
2013-03-11 14:13:00,50.1,22.8,29.88,North,355,8.7,11.5,34,0.00,BKN,BKN,0.00,239.0,WeatherDisplay:10.37,2013-03-11 20:13:00,
2013-03-11 14:20:00,50.3,23.7,29.88,NNW,330,4.0,8.1,35,0.00,BKN,BKN,0.00,223.0,WeatherDisplay:10.37,2013-03-11 20:20:00,
2013-03-11 14:27:00,50.4,23.1,29.88,North,360,5.8,9.2,34,0.00,BKN,BKN,0.00,223.0,WeatherDisplay:10.37,2013-03-11 20:27:00,
2013-03-11 14:34:00,50.6,23.2,29.87,NNW,334,2.5,5.8,34,0.00,BKN,BKN,0.00,216.0,WeatherDisplay:10.37,2013-03-11 20:34:00,
2013-03-11 14:41:00,51.0,22.9,29.87,NNW,345,4.0,7.0,33,0.00,BKN,BKN,0.00,230.0,WeatherDisplay:10.37,2013-03-11 20:41:00,
2013-03-11 14:48:00,51.4,22.5,29.87,NW,306,3.2,5.8,32,0.00,BKN,BKN,0.00,260.0,WeatherDisplay:10.37,2013-03-11 20:48:00,
2013-03-11 14:55:00,52.0,23.0,29.86,WNW,299,2.6,5.8,32,0.00,BKN,BKN,0.00,283.0,WeatherDisplay:10.37,2013-03-11 20:55:00,
2013-03-11 15:02:00,52.3,23.3,29.88,NNW,331,3.7,5.0,32,0.00,BKN,BKN,0.00,299.0,WeatherDisplay:10.37,2013-03-11 21:02:00,
2013-03-11 15:09:00,52.4,21.8,29.87,WNW,296,5.9,11.0,30,0.00,BKN,BKN,0.00,309.0,WeatherDisplay:10.37,2013-03-11 21:09:00,
2013-03-11 15:16:00,52.6,23.5,29.86,NW,326,5.4,10.0,32,0.00,BKN,BKN,0.00,302.0,WeatherDisplay:10.37,2013-03-11 21:16:00,
2013-03-11 15:23:00,52.6,22.8,29.87,NNW,342,4.6,10.3,31,0.00,BKN,BKN,0.00,281.0,WeatherDisplay:10.37,2013-03-11 21:23:00,
2013-03-11 15:30:00,52.6,23.5,29.86,NNW,342,3.8,10.3,32,0.00,BKN,BKN,0.00,292.0,WeatherDisplay:10.37,2013-03-11 21:30:00,
2013-03-11 15:37:00,52.6,23.5,29.86,NNW,337,5.1,9.2,32,0.00,BKN,BKN,0.00,302.0,WeatherDisplay:10.37,2013-03-11 21:37:00,
2013-03-11 15:44:00,52.3,22.5,29.87,NNW,340,7.5,13.8,31,0.00,BKN,BKN,0.00,283.0,WeatherDisplay:10.37,2013-03-11 21:44:00,
2013-03-11 15:51:00,52.3,23.3,29.87,WNW,291,8.3,12.0,32,0.00,BKN,BKN,0.00,404.0,WeatherDisplay:10.37,2013-03-11 21:51:00,
2013-03-11 15:58:00,52.3,24.0,29.87,NW,313,10.5,14.9,33,0.00,BKN,BKN,0.00,504.0,WeatherDisplay:10.37,2013-03-11 21:58:00,
2013-03-11 16:05:00,52.3,24.0,29.86,NW,315,7.6,12.6,33,0.00,BKN,BKN,0.00,478.0,WeatherDisplay:10.37,2013-03-11 22:05:00,
2013-03-11 16:12:00,52.3,24.0,29.85,NW,311,5.8,10.0,33,0.00,BKN,BKN,0.00,476.0,WeatherDisplay:10.37,2013-03-11 22:12:00,
2013-03-11 16:19:00,52.4,24.1,29.86,NNW,340,7.8,17.3,33,0.00,BKN,BKN,0.00,269.0,WeatherDisplay:10.37,2013-03-11 22:19:00,
2013-03-11 16:26:00,52.3,23.3,29.86,NNW,346,12.4,18.4,32,0.00,BKN,BKN,0.00,246.0,WeatherDisplay:10.37,2013-03-11 22:26:00,
2013-03-11 16:33:00,51.7,23.5,29.87,NNW,333,5.8,13.0,33,0.00,BKN,BKN,0.00,209.0,WeatherDisplay:10.37,2013-03-11 22:33:00,
2013-03-11 16:40:00,51.3,22.4,29.87,North,355,7.1,12.6,32,0.00,BKN,BKN,0.00,200.0,WeatherDisplay:10.37,2013-03-11 22:40:00,
2013-03-11 16:47:00,51.1,23.0,29.88,NW,321,8.3,16.1,33,0.00,BKN,BKN,0.00,225.0,WeatherDisplay:10.37,2013-03-11 22:47:00,
2013-03-11 16:54:00,51.0,23.6,29.88,NNW,330,5.0,9.2,34,0.00,BKN,BKN,0.00,271.0,WeatherDisplay:10.37,2013-03-11 22:54:00,
2013-03-11 17:01:00,51.2,23.0,29.88,WNW,298,9.7,12.6,33,0.00,BKN,BKN,0.00,374.0,WeatherDisplay:10.37,2013-03-11 23:01:00,
2013-03-11 17:08:00,51.0,25.6,29.90,ESE,115,9.7,12.6,37,0.00,BKN,BKN,0.00,262.0,WeatherDisplay:10.37,2013-03-11 23:08:00,
2013-03-11 17:15:00,46.3,27.7,29.92,NE,48,10.9,20.7,48,0.00,BKN,BKN,0.00,114.0,WeatherDisplay:10.37,2013-03-11 23:15:00,
2013-03-11 17:22:00,42.4,27.8,29.95,NNE,29,9.7,20.0,56,0.00,BKN,BKN,0.00,113.0,WeatherDisplay:10.37,2013-03-11 23:22:00,
2013-03-11 17:29:00,40.2,28.2,29.99,ENE,64,8.7,18.4,62,0.00,BKN,BKN,0.00,127.0,WeatherDisplay:10.37,2013-03-11 23:29:00,
2013-03-11 17:36:00,38.9,28.5,29.99,East,80,7.9,12.6,66,0.00,BKN,BKN,0.00,97.0,WeatherDisplay:10.37,2013-03-11 23:36:00,
2013-03-11 17:43:00,38.0,28.7,30.01,ENE,61,8.9,14.9,69,0.00,BKN,BKN,0.00,67.0,WeatherDisplay:10.37,2013-03-11 23:43:00,
2013-03-11 17:50:00,37.4,28.9,30.01,NNE,26,6.4,12.6,71,0.00,BKN,BKN,0.00,93.0,WeatherDisplay:10.37,2013-03-11 23:50:00,
2013-03-11 17:57:00,37.0,29.1,30.02,North,351,4.4,10.3,73,0.00,BKN,BKN,0.00,70.0,WeatherDisplay:10.37,2013-03-11 23:57:00,
2013-03-11 18:04:00,36.5,29.0,30.03,ENE,67,9.6,12.6,74,0.00,BKN,BKN,0.00,113.0,WeatherDisplay:10.37,2013-03-12 00:04:00,
2013-03-11 18:11:00,35.8,28.6,30.03,NE,49,7.2,12.6,75,0.00,BKN,BKN,0.00,39.0,WeatherDisplay:10.37,2013-03-12 00:11:00,
2013-03-11 18:18:00,35.0,28.2,30.06,ESE,104,11.1,17.3,76,0.00,BKN,BKN,0.00,32.0,WeatherDisplay:10.37,2013-03-12 00:18:00,
2013-03-11 18:25:00,34.4,27.9,30.07,ENE,71,4.9,11.5,77,0.00,BKN,BKN,0.00,16.0,WeatherDisplay:10.37,2013-03-12 00:25:00,
2013-03-11 18:32:00,34.1,28.0,30.09,NE,35,5.7,9.2,78,0.00,BKN,BKN,0.00,12.0,WeatherDisplay:10.37,2013-03-12 00:32:00,
2013-03-11 18:39:00,33.9,27.8,30.10,NE,46,6.5,11.5,78,0.00,BKN,BKN,0.00,0.0,WeatherDisplay:10.37,2013-03-12 00:39:00,
2013-03-11 18:46:00,33.7,27.9,30.11,NE,47,1.2,3.4,79,0.00,BKN,BKN,0.00,0.0,WeatherDisplay:10.37,2013-03-12 00:46:00,
2013-03-11 18:53:00,33.5,27.7,30.11,East,79,0.9,3.4,79,0.00,BKN,BKN,0.00,0.0,WeatherDisplay:10.37,2013-03-12 00:53:00,
2013-03-11 19:00:00,33.5,27.7,30.11,ENE,74,0.6,2.3,79,0.00,BKN,BKN,0.00,0.0,WeatherDisplay:10.37,2013-03-12 01:00:00,
2013-03-11 19:07:00,33.4,27.9,30.09,ENE,65,1.3,4.0,80,0.00,BKN,BKN,0.00,0.0,WeatherDisplay:10.37,2013-03-12 01:07:00,
2013-03-11 19:14:00,33.2,27.7,30.10,ENE,76,3.4,9.2,80,0.00,OVC,OVC,0.00,0.0,WeatherDisplay:10.37,2013-03-12 01:14:00,
2013-03-11 19:21:00,32.9,27.7,30.10,ESE,108,2.8,5.0,81,0.00,OVC,OVC,0.00,0.0,WeatherDisplay:10.37,2013-03-12 01:21:00,
2013-03-11 19:28:00,32.7,27.8,30.10,East,96,0.7,3.4,82,0.00,OVC,OVC,0.00,0.0,WeatherDisplay:10.37,2013-03-12 01:28:00,
2013-03-11 19:35:00,32.5,27.6,30.10,NE,49,2.4,9.2,82,0.00,OVC,OVC,0.00,0.0,WeatherDisplay:10.37,2013-03-12 01:35:00,
2013-03-11 19:42:00,32.2,27.3,30.11,East,86,2.7,4.6,82,0.00,OVC,OVC,0.00,0.0,WeatherDisplay:10.37,2013-03-12 01:42:00,
2013-03-11 19:49:00,31.9,27.3,30.11,East,98,1.9,3.4,83,0.00,OVC,OVC,0.00,0.0,WeatherDisplay:10.37,2013-03-12 01:49:00,
2013-03-11 19:56:00,31.6,27.3,30.12,East,95,4.7,8.1,84,0.00,-SN,-SN,0.00,0.0,WeatherDisplay:10.37,2013-03-12 01:56:00,
2013-03-11 20:03:00,31.5,27.2,30.09,East,91,2.1,3.4,84,0.00,-SN,-SN,0.00,0.0,WeatherDisplay:10.37,2013-03-12 02:03:00,
2013-03-11 20:10:00,31.4,27.4,30.10,ESE,110,2.8,4.6,85,0.00,-SN,-SN,0.00,0.0,WeatherDisplay:10.37,2013-03-12 02:10:00,
2013-03-11 20:17:00,31.2,27.2,30.09,ESE,106,5.4,6.9,85,0.00,-SN,-SN,0.00,0.0,WeatherDisplay:10.37,2013-03-12 02:17:00,
2013-03-11 20:24:00,31.1,27.1,30.09,East,87,4.3,9.2,85,0.00,-SN,-SN,0.00,0.0,WeatherDisplay:10.37,2013-03-12 02:24:00,
2013-03-11 20:31:00,31.0,27.0,30.10,East,89,4.1,4.6,85,0.00,-SN,-SN,0.00,0.0,WeatherDisplay:10.37,2013-03-12 02:31:00,
2013-03-11 20:38:00,31.1,27.1,30.11,East,96,0.7,2.0,85,0.00,-SN,-SN,0.00,0.0,WeatherDisplay:10.37,2013-03-12 02:38:00,
2013-03-11 20:44:00,31.1,27.1,30.11,East,95,0.8,3.4,85,0.00,-SN,-SN,0.00,0.0,WeatherDisplay:10.37,2013-03-12 02:44:00,
2013-03-11 20:52:00,31.0,27.3,30.11,East,96,0.2,2.3,86,0.00,-SN,-SN,0.00,0.0,WeatherDisplay:10.37,2013-03-12 02:52:00,
2013-03-11 20:59:00,30.9,27.2,30.11,East,94,2.2,5.0,86,0.00,-SN,-SN,0.00,0.0,WeatherDisplay:10.37,2013-03-12 02:59:00,
2013-03-11 21:06:00,30.8,27.1,30.09,East,93,2.4,3.4,86,0.00,-SN,-SN,0.00,0.0,WeatherDisplay:10.37,2013-03-12 03:06:00,
2013-03-11 21:12:00,30.7,27.0,30.09,East,95,0.9,3.0,86,0.00,-SN,-SN,0.00,0.0,WeatherDisplay:10.37,2013-03-12 03:12:00,
2013-03-11 21:19:00,30.7,27.0,30.09,East,87,0.8,4.0,86,0.00,-SN,-SN,0.00,0.0,WeatherDisplay:10.37,2013-03-12 03:19:00,
2013-03-11 21:26:00,30.7,27.3,30.10,East,84,1.9,3.0,87,0.00,-SN,-SN,0.00,0.0,WeatherDisplay:10.37,2013-03-12 03:26:00,
2013-03-11 21:33:00,30.7,27.3,30.10,East,84,0.8,2.3,87,0.00,-SN,-SN,0.00,0.0,WeatherDisplay:10.37,2013-03-12 03:33:00,
2013-03-11 21:40:00,30.6,27.2,30.10,East,85,0.4,2.3,87,0.00,-SN,-SN,0.00,0.0,WeatherDisplay:10.37,2013-03-12 03:40:00,
2013-03-11 21:47:00,30.6,27.2,30.11,East,85,0.0,2.3,87,0.00,-SN,-SN,0.00,0.0,WeatherDisplay:10.37,2013-03-12 03:47:00,
2013-03-11 21:54:00,30.6,27.2,30.10,East,85,1.6,2.3,87,0.00,-SN,-SN,0.00,0.0,WeatherDisplay:10.37,2013-03-12 03:54:00,
2013-03-11 22:01:00,30.6,27.2,30.11,East,85,0.3,2.3,87,0.00,-SN,-SN,0.00,0.0,WeatherDisplay:10.37,2013-03-12 04:01:00,
2013-03-11 22:08:00,30.6,27.5,30.09,East,84,0.3,1.1,88,0.00,-SN,-SN,0.00,0.0,WeatherDisplay:10.37,2013-03-12 04:08:00,
2013-03-11 22:15:00,30.6,27.5,30.09,ESE,107,2.6,3.4,88,0.00,-SN,-SN,0.00,0.0,WeatherDisplay:10.37,2013-03-12 04:15:00,
2013-03-11 22:22:00,30.6,27.5,30.10,SE,138,0.9,2.3,88,0.00,-SN,-SN,0.00,0.0,WeatherDisplay:10.37,2013-03-12 04:22:00,
2013-03-11 22:29:00,30.5,27.4,30.10,SE,137,0.9,1.0,88,0.00,-SN,-SN,0.00,0.0,WeatherDisplay:10.37,2013-03-12 04:29:00,
2013-03-11 22:36:00,30.5,27.4,30.10,SE,138,0.9,2.3,88,0.00,CLR,CLR,0.00,0.0,WeatherDisplay:10.37,2013-03-12 04:36:00,
2013-03-11 22:43:00,30.4,27.3,30.11,SE,138,0.8,2.3,88,0.00,-SN,-SN,0.00,0.0,WeatherDisplay:10.37,2013-03-12 04:43:00,
2013-03-11 22:50:00,30.4,27.3,30.12,SE,138,0.0,0.0,88,0.00,-SN,-SN,0.00,0.0,WeatherDisplay:10.37,2013-03-12 04:50:00,
2013-03-11 22:57:00,30.4,27.3,30.12,SE,138,0.2,1.1,88,0.00,-SN,-SN,0.00,0.0,WeatherDisplay:10.37,2013-03-12 04:57:00,
2013-03-11 23:04:00,30.5,27.4,30.09,SE,138,1.4,3.4,88,0.00,-SN,-SN,0.00,0.0,WeatherDisplay:10.37,2013-03-12 05:04:00,
2013-03-11 23:11:00,30.4,27.3,30.11,SE,138,0.0,2.3,88,0.00,-SN,-SN,0.00,0.0,WeatherDisplay:10.37,2013-03-12 05:11:00,
2013-03-11 23:18:00,30.4,27.5,30.11,SE,138,0.3,1.1,89,0.00,-SN,-SN,0.00,0.0,WeatherDisplay:10.37,2013-03-12 05:18:00,
2013-03-11 23:25:00,30.4,27.5,30.12,SE,138,0.0,0.0,89,0.00,-SN,-SN,0.00,0.0,WeatherDisplay:10.37,2013-03-12 05:25:00,
2013-03-11 23:32:00,30.3,27.4,30.12,SE,138,0.0,0.0,89,0.00,-SN,-SN,0.00,0.0,WeatherDisplay:10.37,2013-03-12 05:32:00,
2013-03-11 23:39:00,30.3,27.4,30.12,SE,138,0.0,0.0,89,0.00,-SN,-SN,0.00,0.0,WeatherDisplay:10.37,2013-03-12 05:39:00,
2013-03-11 23:46:00,30.4,27.5,30.12,SE,138,0.0,0.0,89,0.00,-SN,-SN,0.00,0.0,WeatherDisplay:10.37,2013-03-12 05:46:00,
2013-03-11 23:53:00,30.4,27.5,30.12,SE,137,0.0,0.0,89,0.00,CLR,CLR,0.00,0.0,WeatherDisplay:10.37,2013-03-12 05:53:00,